sensor_id;sensor_type;location;lat;lon;timestamp;pressure;altitude;pressure_sealevel;temperature;humidity
55460;BME280;41326;45.302;-122.946;2023-07-20T00:01:15;100825.31;;;22.33;43.16
55460;BME280;41326;45.302;-122.946;2023-07-20T00:03:45;100824.03;;;22.39;42.18
55460;BME280;41326;45.302;-122.946;2023-07-20T00:06:16;100827.36;;;22.45;42.60
55460;BME280;41326;45.302;-122.946;2023-07-20T00:08:46;100825.28;;;22.42;42.59
55460;BME280;41326;45.302;-122.946;2023-07-20T00:11:16;100823.11;;;22.35;41.92
55460;BME280;41326;45.302;-122.946;2023-07-20T00:13:47;100821.44;;;22.33;42.21
55460;BME280;41326;45.302;-122.946;2023-07-20T00:16:17;100817.80;;;22.27;41.91
55460;BME280;41326;45.302;-122.946;2023-07-20T00:18:47;100820.14;;;22.27;42.61
55460;BME280;41326;45.302;-122.946;2023-07-20T00:21:18;100821.21;;;22.27;42.78
55460;BME280;41326;45.302;-122.946;2023-07-20T00:23:48;100822.13;;;22.28;42.18
55460;BME280;41326;45.302;-122.946;2023-07-20T00:26:18;100819.42;;;22.23;42.06
55460;BME280;41326;45.302;-122.946;2023-07-20T00:28:49;100819.57;;;22.19;42.07
55460;BME280;41326;45.302;-122.946;2023-07-20T00:31:18;100814.64;;;22.17;42.25
55460;BME280;41326;45.302;-122.946;2023-07-20T00:33:49;100812.49;;;22.12;41.72
55460;BME280;41326;45.302;-122.946;2023-07-20T00:36:19;100808.88;;;22.09;42.17
55460;BME280;41326;45.302;-122.946;2023-07-20T00:38:50;100807.96;;;22.05;42.22
55460;BME280;41326;45.302;-122.946;2023-07-20T00:41:20;100806.29;;;22.00;42.14
55460;BME280;41326;45.302;-122.946;2023-07-20T00:43:50;100809.44;;;21.95;42.03
55460;BME280;41326;45.302;-122.946;2023-07-20T00:46:21;100810.47;;;21.89;42.97
55460;BME280;41326;45.302;-122.946;2023-07-20T00:48:51;100808.08;;;22.03;42.38
55460;BME280;41326;45.302;-122.946;2023-07-20T00:51:21;100802.83;;;22.07;41.60
55460;BME280;41326;45.302;-122.946;2023-07-20T00:53:51;100800.52;;;21.99;41.46
55460;BME280;41326;45.302;-122.946;2023-07-20T00:56:22;100798.60;;;21.88;42.43
55460;BME280;41326;45.302;-122.946;2023-07-20T00:58:52;100797.01;;;21.92;41.86
55460;BME280;41326;45.302;-122.946;2023-07-20T01:01:22;100797.20;;;21.91;41.88
55460;BME280;41326;45.302;-122.946;2023-07-20T01:03:53;100794.91;;;21.89;41.83
55460;BME280;41326;45.302;-122.946;2023-07-20T01:06:32;100796.15;;;21.86;41.81
55460;BME280;41326;45.302;-122.946;2023-07-20T01:09:01;100794.08;;;21.84;42.20
55460;BME280;41326;45.302;-122.946;2023-07-20T01:11:31;100792.93;;;21.91;41.68
55460;BME280;41326;45.302;-122.946;2023-07-20T01:13:55;100795.15;;;21.90;41.57
55460;BME280;41326;45.302;-122.946;2023-07-20T01:16:25;100796.49;;;21.86;41.07
55460;BME280;41326;45.302;-122.946;2023-07-20T01:18:56;100797.60;;;21.82;41.65
55460;BME280;41326;45.302;-122.946;2023-07-20T01:21:32;100799.24;;;21.82;41.42
55460;BME280;41326;45.302;-122.946;2023-07-20T01:26:38;100799.52;;;21.88;41.43
55460;BME280;41326;45.302;-122.946;2023-07-20T01:29:08;100799.48;;;21.94;40.89
55460;BME280;41326;45.302;-122.946;2023-07-20T01:31:28;100801.05;;;21.91;41.01
55460;BME280;41326;45.302;-122.946;2023-07-20T01:34:01;100804.27;;;21.85;41.45
55460;BME280;41326;45.302;-122.946;2023-07-20T01:36:30;100800.20;;;21.86;41.42
55460;BME280;41326;45.302;-122.946;2023-07-20T01:38:58;100798.77;;;21.84;40.96
55460;BME280;41326;45.302;-122.946;2023-07-20T01:42:36;100803.70;;;21.79;40.94
55460;BME280;41326;45.302;-122.946;2023-07-20T01:45:07;100807.30;;;21.75;40.76
55460;BME280;41326;45.302;-122.946;2023-07-20T01:47:37;100808.46;;;21.67;40.85
55460;BME280;41326;45.302;-122.946;2023-07-20T01:50:07;100810.70;;;21.63;40.84
55460;BME280;41326;45.302;-122.946;2023-07-20T01:52:38;100815.33;;;21.63;41.31
55460;BME280;41326;45.302;-122.946;2023-07-20T01:55:08;100816.01;;;21.70;42.69
55460;BME280;41326;45.302;-122.946;2023-07-20T01:57:38;100817.30;;;21.85;41.53
55460;BME280;41326;45.302;-122.946;2023-07-20T02:00:09;100821.45;;;21.99;43.09
55460;BME280;41326;45.302;-122.946;2023-07-20T02:02:39;100826.07;;;22.11;41.83
55460;BME280;41326;45.302;-122.946;2023-07-20T02:05:09;100828.55;;;22.17;41.19
55460;BME280;41326;45.302;-122.946;2023-07-20T02:07:39;100829.53;;;22.20;40.94
55460;BME280;41326;45.302;-122.946;2023-07-20T02:10:10;100831.94;;;22.27;41.06
55460;BME280;41326;45.302;-122.946;2023-07-20T02:12:40;100835.05;;;22.32;40.74
55460;BME280;41326;45.302;-122.946;2023-07-20T02:15:10;100842.60;;;22.32;40.69
55460;BME280;41326;45.302;-122.946;2023-07-20T02:17:40;100847.24;;;22.30;39.65
55460;BME280;41326;45.302;-122.946;2023-07-20T02:20:11;100854.29;;;22.23;40.07
55460;BME280;41326;45.302;-122.946;2023-07-20T02:22:42;100854.94;;;22.18;39.80
55460;BME280;41326;45.302;-122.946;2023-07-20T02:25:12;100855.75;;;22.07;39.80
55460;BME280;41326;45.302;-122.946;2023-07-20T02:27:42;100859.31;;;22.07;41.39
55460;BME280;41326;45.302;-122.946;2023-07-20T02:30:13;100859.13;;;21.96;40.73
55460;BME280;41326;45.302;-122.946;2023-07-20T02:32:43;100859.79;;;21.93;41.31
55460;BME280;41326;45.302;-122.946;2023-07-20T02:35:13;100861.80;;;21.90;40.44
55460;BME280;41326;45.302;-122.946;2023-07-20T02:37:43;100863.37;;;21.80;40.06
55460;BME280;41326;45.302;-122.946;2023-07-20T02:40:14;100865.72;;;21.71;40.71
55460;BME280;41326;45.302;-122.946;2023-07-20T02:42:45;100874.71;;;21.71;41.34
55460;BME280;41326;45.302;-122.946;2023-07-20T02:45:16;100875.74;;;21.73;41.42
55460;BME280;41326;45.302;-122.946;2023-07-20T02:47:45;100879.16;;;21.76;41.06
55460;BME280;41326;45.302;-122.946;2023-07-20T02:50:16;100882.85;;;21.72;42.15
55460;BME280;41326;45.302;-122.946;2023-07-20T02:52:47;100881.62;;;21.70;42.16
55460;BME280;41326;45.302;-122.946;2023-07-20T02:55:17;100889.58;;;21.86;43.04
55460;BME280;41326;45.302;-122.946;2023-07-20T02:57:47;100899.57;;;22.06;43.18
55460;BME280;41326;45.302;-122.946;2023-07-20T03:00:18;100894.06;;;22.17;42.27
55460;BME280;41326;45.302;-122.946;2023-07-20T03:02:48;100890.64;;;22.20;41.20
55460;BME280;41326;45.302;-122.946;2023-07-20T03:05:19;100897.46;;;22.09;39.37
55460;BME280;41326;45.302;-122.946;2023-07-20T03:07:49;100905.15;;;22.04;40.41
55460;BME280;41326;45.302;-122.946;2023-07-20T03:10:26;100908.46;;;21.93;40.69
55460;BME280;41326;45.302;-122.946;2023-07-20T03:12:49;100910.98;;;21.82;40.77
55460;BME280;41326;45.302;-122.946;2023-07-20T03:15:20;100911.29;;;21.78;40.66
55460;BME280;41326;45.302;-122.946;2023-07-20T03:17:50;100915.21;;;21.74;41.06
55460;BME280;41326;45.302;-122.946;2023-07-20T03:20:23;100915.62;;;21.66;41.50
55460;BME280;41326;45.302;-122.946;2023-07-20T03:22:52;100917.85;;;21.58;41.34
55460;BME280;41326;45.302;-122.946;2023-07-20T03:25:21;100921.47;;;21.53;41.71
55460;BME280;41326;45.302;-122.946;2023-07-20T03:27:51;100925.21;;;21.55;40.94
55460;BME280;41326;45.302;-122.946;2023-07-20T03:30:22;100924.92;;;21.47;40.57
55460;BME280;41326;45.302;-122.946;2023-07-20T03:32:52;100930.09;;;21.35;40.64
55460;BME280;41326;45.302;-122.946;2023-07-20T03:35:23;100936.42;;;21.26;41.45
55460;BME280;41326;45.302;-122.946;2023-07-20T03:37:54;100937.43;;;21.24;41.24
55460;BME280;41326;45.302;-122.946;2023-07-20T03:40:25;100947.00;;;21.20;40.45
55460;BME280;41326;45.302;-122.946;2023-07-20T03:42:55;100952.48;;;21.13;41.07
55460;BME280;41326;45.302;-122.946;2023-07-20T03:45:24;100947.58;;;21.05;41.06
55460;BME280;41326;45.302;-122.946;2023-07-20T03:47:55;100957.11;;;21.10;40.29
55460;BME280;41326;45.302;-122.946;2023-07-20T03:50:26;100954.98;;;21.06;40.92
55460;BME280;41326;45.302;-122.946;2023-07-20T03:52:56;100956.37;;;21.05;40.54
55460;BME280;41326;45.302;-122.946;2023-07-20T03:55:26;100958.92;;;20.97;40.67
55460;BME280;41326;45.302;-122.946;2023-07-20T03:57:56;100953.10;;;21.03;40.42
55460;BME280;41326;45.302;-122.946;2023-07-20T04:00:30;100961.28;;;20.98;40.13
55460;BME280;41326;45.302;-122.946;2023-07-20T04:02:57;100963.00;;;20.84;40.37
55460;BME280;41326;45.302;-122.946;2023-07-20T04:05:28;100969.69;;;20.80;40.96
55460;BME280;41326;45.302;-122.946;2023-07-20T04:07:58;100970.24;;;20.70;40.66
55460;BME280;41326;45.302;-122.946;2023-07-20T04:10:29;100978.63;;;20.74;40.84
55460;BME280;41326;45.302;-122.946;2023-07-20T04:13:00;100982.60;;;20.66;40.71
55460;BME280;41326;45.302;-122.946;2023-07-20T04:15:29;100986.13;;;20.62;40.63
55460;BME280;41326;45.302;-122.946;2023-07-20T04:18:00;100988.14;;;20.60;41.02
55460;BME280;41326;45.302;-122.946;2023-07-20T04:20:35;100991.94;;;20.53;40.79
55460;BME280;41326;45.302;-122.946;2023-07-20T04:23:11;100995.22;;;20.47;40.78
55460;BME280;41326;45.302;-122.946;2023-07-20T04:25:31;100996.72;;;20.42;40.77
55460;BME280;41326;45.302;-122.946;2023-07-20T04:28:01;101002.17;;;20.45;41.29
55460;BME280;41326;45.302;-122.946;2023-07-20T04:30:33;101005.36;;;20.41;40.80
55460;BME280;41326;45.302;-122.946;2023-07-20T04:33:07;101011.88;;;20.41;40.51
55460;BME280;41326;45.302;-122.946;2023-07-20T04:38:03;101020.33;;;20.40;40.68
55460;BME280;41326;45.302;-122.946;2023-07-20T04:40:34;101020.40;;;20.37;40.74
55460;BME280;41326;45.302;-122.946;2023-07-20T04:43:03;101019.94;;;20.29;40.32
55460;BME280;41326;45.302;-122.946;2023-07-20T04:45:33;101023.47;;;20.22;41.24
55460;BME280;41326;45.302;-122.946;2023-07-20T04:48:05;101027.18;;;20.22;41.39
55460;BME280;41326;45.302;-122.946;2023-07-20T04:50:34;101030.73;;;20.20;40.91
55460;BME280;41326;45.302;-122.946;2023-07-20T04:53:04;101039.00;;;20.16;40.75
55460;BME280;41326;45.302;-122.946;2023-07-20T04:55:35;101043.99;;;20.14;40.79
55460;BME280;41326;45.302;-122.946;2023-07-20T04:58:06;101045.81;;;20.12;41.13
55460;BME280;41326;45.302;-122.946;2023-07-20T05:00:37;101050.39;;;20.00;41.47
55460;BME280;41326;45.302;-122.946;2023-07-20T05:03:06;101056.54;;;19.96;41.45
55460;BME280;41326;45.302;-122.946;2023-07-20T05:05:36;101061.46;;;19.92;41.03
55460;BME280;41326;45.302;-122.946;2023-07-20T05:08:07;101064.39;;;19.84;41.66
55460;BME280;41326;45.302;-122.946;2023-07-20T05:10:36;101070.66;;;19.84;40.85
55460;BME280;41326;45.302;-122.946;2023-07-20T05:13:07;101072.44;;;19.85;42.02
55460;BME280;41326;45.302;-122.946;2023-07-20T05:15:39;101072.65;;;19.85;41.20
55460;BME280;41326;45.302;-122.946;2023-07-20T05:18:07;101070.53;;;19.78;41.46
55460;BME280;41326;45.302;-122.946;2023-07-20T05:20:38;101074.77;;;19.69;41.57
55460;BME280;41326;45.302;-122.946;2023-07-20T05:23:08;101076.29;;;19.69;41.78
55460;BME280;41326;45.302;-122.946;2023-07-20T05:25:39;101085.54;;;19.63;41.86
55460;BME280;41326;45.302;-122.946;2023-07-20T05:28:10;101087.36;;;19.81;43.53
55460;BME280;41326;45.302;-122.946;2023-07-20T05:30:40;101097.75;;;20.02;44.41
55460;BME280;41326;45.302;-122.946;2023-07-20T05:33:10;101102.03;;;20.30;44.63
55460;BME280;41326;45.302;-122.946;2023-07-20T05:35:42;101101.78;;;20.39;43.77
55460;BME280;41326;45.302;-122.946;2023-07-20T05:38:10;101105.67;;;20.33;43.63
55460;BME280;41326;45.302;-122.946;2023-07-20T05:40:43;101109.98;;;20.24;43.61
55460;BME280;41326;45.302;-122.946;2023-07-20T05:43:11;101109.90;;;20.12;44.64
55460;BME280;41326;45.302;-122.946;2023-07-20T05:45:41;101112.75;;;20.19;47.28
55460;BME280;41326;45.302;-122.946;2023-07-20T05:48:11;101118.51;;;20.38;48.72
55460;BME280;41326;45.302;-122.946;2023-07-20T05:50:42;101122.70;;;20.58;49.33
55460;BME280;41326;45.302;-122.946;2023-07-20T05:53:12;101121.09;;;20.73;49.64
55460;BME280;41326;45.302;-122.946;2023-07-20T05:55:42;101122.27;;;20.85;49.88
55460;BME280;41326;45.302;-122.946;2023-07-20T05:58:12;101119.78;;;20.79;46.36
55460;BME280;41326;45.302;-122.946;2023-07-20T06:00:42;101127.25;;;20.59;45.62
55460;BME280;41326;45.302;-122.946;2023-07-20T06:03:13;101133.90;;;20.41;46.56
55460;BME280;41326;45.302;-122.946;2023-07-20T06:05:43;101133.95;;;20.28;46.62
55460;BME280;41326;45.302;-122.946;2023-07-20T06:08:13;101135.37;;;20.12;45.62
55460;BME280;41326;45.302;-122.946;2023-07-20T06:10:43;101137.85;;;20.02;47.26
55460;BME280;41326;45.302;-122.946;2023-07-20T06:13:14;101143.60;;;19.85;46.97
55460;BME280;41326;45.302;-122.946;2023-07-20T06:15:45;101148.99;;;19.74;47.67
55460;BME280;41326;45.302;-122.946;2023-07-20T06:18:15;101154.01;;;19.78;51.49
55460;BME280;41326;45.302;-122.946;2023-07-20T06:20:48;101157.73;;;20.05;52.80
55460;BME280;41326;45.302;-122.946;2023-07-20T06:23:16;101162.32;;;20.26;53.51
55460;BME280;41326;45.302;-122.946;2023-07-20T06:25:45;101162.47;;;20.45;54.15
55460;BME280;41326;45.302;-122.946;2023-07-20T06:28:16;101165.74;;;20.60;54.64
55460;BME280;41326;45.302;-122.946;2023-07-20T06:30:46;101168.50;;;20.72;54.71
55460;BME280;41326;45.302;-122.946;2023-07-20T06:33:16;101164.66;;;20.83;54.67
55460;BME280;41326;45.302;-122.946;2023-07-20T06:35:48;101164.86;;;20.87;54.66
55460;BME280;41326;45.302;-122.946;2023-07-20T06:38:17;101165.42;;;20.89;54.72
55460;BME280;41326;45.302;-122.946;2023-07-20T06:40:47;101168.82;;;20.94;54.63
55460;BME280;41326;45.302;-122.946;2023-07-20T06:43:18;101172.44;;;21.06;54.49
55460;BME280;41326;45.302;-122.946;2023-07-20T06:45:51;101175.64;;;21.16;54.53
55460;BME280;41326;45.302;-122.946;2023-07-20T06:48:18;101175.84;;;21.16;54.74
55460;BME280;41326;45.302;-122.946;2023-07-20T06:50:49;101177.65;;;20.95;50.55
55460;BME280;41326;45.302;-122.946;2023-07-20T06:53:19;101184.58;;;20.71;50.64
55460;BME280;41326;45.302;-122.946;2023-07-20T06:55:49;101185.35;;;20.49;50.77
55460;BME280;41326;45.302;-122.946;2023-07-20T06:58:20;101188.40;;;20.58;52.46
55460;BME280;41326;45.302;-122.946;2023-07-20T07:00:50;101191.60;;;20.67;52.77
55460;BME280;41326;45.302;-122.946;2023-07-20T07:03:20;101193.27;;;20.75;53.03
55460;BME280;41326;45.302;-122.946;2023-07-20T07:06:01;101197.54;;;20.92;53.13
55460;BME280;41326;45.302;-122.946;2023-07-20T07:08:21;101195.72;;;20.98;53.33
55460;BME280;41326;45.302;-122.946;2023-07-20T07:10:51;101200.56;;;20.98;53.53
55460;BME280;41326;45.302;-122.946;2023-07-20T07:13:22;101200.60;;;21.01;53.62
55460;BME280;41326;45.302;-122.946;2023-07-20T07:15:52;101198.10;;;21.11;53.45
55460;BME280;41326;45.302;-122.946;2023-07-20T07:18:22;101198.21;;;21.14;53.51
55460;BME280;41326;45.302;-122.946;2023-07-20T07:20:56;101202.96;;;21.21;53.51
55460;BME280;41326;45.302;-122.946;2023-07-20T07:23:23;101205.15;;;21.25;53.80
55460;BME280;41326;45.302;-122.946;2023-07-20T07:25:53;101206.37;;;21.28;54.03
55460;BME280;41326;45.302;-122.946;2023-07-20T07:28:24;101209.16;;;21.26;54.35
55460;BME280;41326;45.302;-122.946;2023-07-20T07:30:54;101214.33;;;21.29;54.58
55460;BME280;41326;45.302;-122.946;2023-07-20T07:33:25;101218.13;;;21.31;54.58
55460;BME280;41326;45.302;-122.946;2023-07-20T07:35:55;101217.53;;;21.33;54.66
55460;BME280;41326;45.302;-122.946;2023-07-20T07:38:25;101220.06;;;21.34;54.68
55460;BME280;41326;45.302;-122.946;2023-07-20T07:40:55;101216.74;;;21.30;54.80
55460;BME280;41326;45.302;-122.946;2023-07-20T07:43:26;101220.56;;;21.34;54.90
55460;BME280;41326;45.302;-122.946;2023-07-20T07:45:59;101220.10;;;21.34;55.19
55460;BME280;41326;45.302;-122.946;2023-07-20T07:48:27;101224.11;;;21.36;55.24
55460;BME280;41326;45.302;-122.946;2023-07-20T07:50:56;101223.60;;;21.34;55.34
55460;BME280;41326;45.302;-122.946;2023-07-20T07:53:28;101226.47;;;21.36;55.37
55460;BME280;41326;45.302;-122.946;2023-07-20T07:55:58;101228.19;;;21.35;55.40
55460;BME280;41326;45.302;-122.946;2023-07-20T07:58:29;101232.06;;;21.34;55.45
55460;BME280;41326;45.302;-122.946;2023-07-20T08:00:59;101230.67;;;21.33;55.50
55460;BME280;41326;45.302;-122.946;2023-07-20T08:03:29;101231.80;;;21.32;55.71
55460;BME280;41326;45.302;-122.946;2023-07-20T08:06:00;101233.59;;;21.36;55.80
55460;BME280;41326;45.302;-122.946;2023-07-20T08:08:30;101241.19;;;21.35;55.85
55460;BME280;41326;45.302;-122.946;2023-07-20T08:11:00;101239.49;;;21.38;55.87
55460;BME280;41326;45.302;-122.946;2023-07-20T08:13:31;101243.39;;;21.35;56.03
55460;BME280;41326;45.302;-122.946;2023-07-20T08:16:01;101241.14;;;21.35;56.13
55460;BME280;41326;45.302;-122.946;2023-07-20T08:18:33;101248.99;;;21.31;56.31
55460;BME280;41326;45.302;-122.946;2023-07-20T08:21:02;101252.41;;;21.30;56.36
55460;BME280;41326;45.302;-122.946;2023-07-20T08:23:33;101254.17;;;21.32;55.94
55460;BME280;41326;45.302;-122.946;2023-07-20T08:26:04;101257.01;;;21.25;52.74
55460;BME280;41326;45.302;-122.946;2023-07-20T08:28:34;101257.49;;;20.99;50.71
55460;BME280;41326;45.302;-122.946;2023-07-20T08:31:05;101258.85;;;20.74;49.34
55460;BME280;41326;45.302;-122.946;2023-07-20T08:33:34;101264.99;;;20.58;52.77
55460;BME280;41326;45.302;-122.946;2023-07-20T08:36:04;101270.58;;;20.68;53.67
55460;BME280;41326;45.302;-122.946;2023-07-20T08:38:35;101273.16;;;20.74;53.92
55460;BME280;41326;45.302;-122.946;2023-07-20T08:41:05;101275.91;;;20.81;54.00
55460;BME280;41326;45.302;-122.946;2023-07-20T08:43:36;101279.75;;;20.90;54.43
55460;BME280;41326;45.302;-122.946;2023-07-20T08:46:06;101280.35;;;20.91;55.01
55460;BME280;41326;45.302;-122.946;2023-07-20T08:48:37;101278.50;;;20.97;55.07
55460;BME280;41326;45.302;-122.946;2023-07-20T08:51:07;101276.86;;;21.02;55.06
55460;BME280;41326;45.302;-122.946;2023-07-20T08:53:37;101276.06;;;21.05;55.17
55460;BME280;41326;45.302;-122.946;2023-07-20T08:56:07;101277.47;;;21.07;55.18
55460;BME280;41326;45.302;-122.946;2023-07-20T08:58:39;101284.70;;;21.08;55.37
55460;BME280;41326;45.302;-122.946;2023-07-20T09:01:09;101288.72;;;21.02;55.68
55460;BME280;41326;45.302;-122.946;2023-07-20T09:03:39;101288.96;;;21.00;56.30
55460;BME280;41326;45.302;-122.946;2023-07-20T09:06:09;101289.24;;;20.99;56.70
55460;BME280;41326;45.302;-122.946;2023-07-20T09:08:40;101288.07;;;21.00;56.82
55460;BME280;41326;45.302;-122.946;2023-07-20T09:11:11;101287.11;;;21.07;56.54
55460;BME280;41326;45.302;-122.946;2023-07-20T09:13:40;101289.28;;;21.12;56.40
55460;BME280;41326;45.302;-122.946;2023-07-20T09:16:15;101287.71;;;21.12;56.45
55460;BME280;41326;45.302;-122.946;2023-07-20T09:18:41;101286.23;;;21.13;56.42
55460;BME280;41326;45.302;-122.946;2023-07-20T09:21:11;101286.92;;;21.19;56.22
55460;BME280;41326;45.302;-122.946;2023-07-20T09:23:43;101284.40;;;21.17;56.46
55460;BME280;41326;45.302;-122.946;2023-07-20T09:26:16;101285.80;;;21.16;56.70
55460;BME280;41326;45.302;-122.946;2023-07-20T09:28:49;101285.69;;;21.18;56.76
55460;BME280;41326;45.302;-122.946;2023-07-20T09:31:20;101283.61;;;21.18;56.72
55460;BME280;41326;45.302;-122.946;2023-07-20T09:33:45;101284.29;;;21.15;56.76
55460;BME280;41326;45.302;-122.946;2023-07-20T09:36:15;101287.61;;;21.12;56.79
55460;BME280;41326;45.302;-122.946;2023-07-20T09:38:43;101294.95;;;21.16;56.73
55460;BME280;41326;45.302;-122.946;2023-07-20T09:41:14;101296.74;;;21.22;56.49
55460;BME280;41326;45.302;-122.946;2023-07-20T09:43:45;101296.08;;;21.20;56.75
55460;BME280;41326;45.302;-122.946;2023-07-20T09:46:15;101296.92;;;21.22;56.83
55460;BME280;41326;45.302;-122.946;2023-07-20T09:51:16;101305.56;;;21.23;56.77
55460;BME280;41326;45.302;-122.946;2023-07-20T09:53:46;101306.29;;;21.20;56.86
55460;BME280;41326;45.302;-122.946;2023-07-20T09:56:17;101302.44;;;21.21;56.94
55460;BME280;41326;45.302;-122.946;2023-07-20T09:58:47;101304.89;;;21.20;56.89
55460;BME280;41326;45.302;-122.946;2023-07-20T10:01:20;101302.22;;;21.18;56.90
55460;BME280;41326;45.302;-122.946;2023-07-20T10:03:51;101305.04;;;21.17;56.95
55460;BME280;41326;45.302;-122.946;2023-07-20T10:06:23;101308.32;;;21.16;57.07
55460;BME280;41326;45.302;-122.946;2023-07-20T10:08:49;101310.39;;;21.18;57.11
55460;BME280;41326;45.302;-122.946;2023-07-20T10:11:22;101314.02;;;21.18;57.11
55460;BME280;41326;45.302;-122.946;2023-07-20T10:13:50;101313.46;;;21.15;57.24
55460;BME280;41326;45.302;-122.946;2023-07-20T10:16:26;101314.82;;;21.14;57.21
55460;BME280;41326;45.302;-122.946;2023-07-20T10:18:58;101314.64;;;21.17;57.13
55460;BME280;41326;45.302;-122.946;2023-07-20T10:21:22;101315.12;;;21.19;57.01
55460;BME280;41326;45.302;-122.946;2023-07-20T10:23:51;101317.79;;;21.19;56.97
55460;BME280;41326;45.302;-122.946;2023-07-20T10:26:21;101319.82;;;21.17;57.10
55460;BME280;41326;45.302;-122.946;2023-07-20T10:28:52;101319.05;;;21.11;57.42
55460;BME280;41326;45.302;-122.946;2023-07-20T10:31:23;101316.91;;;21.17;57.22
55460;BME280;41326;45.302;-122.946;2023-07-20T10:33:53;101320.42;;;21.18;57.24
55460;BME280;41326;45.302;-122.946;2023-07-20T10:36:28;101323.37;;;21.18;57.20
55460;BME280;41326;45.302;-122.946;2023-07-20T10:38:57;101327.04;;;21.13;57.27
55460;BME280;41326;45.302;-122.946;2023-07-20T10:41:28;101327.31;;;21.16;57.18
55460;BME280;41326;45.302;-122.946;2023-07-20T10:43:58;101323.13;;;21.15;57.15
55460;BME280;41326;45.302;-122.946;2023-07-20T10:48:59;101321.77;;;21.15;57.04
55460;BME280;41326;45.302;-122.946;2023-07-20T10:51:27;101322.21;;;21.12;57.13
55460;BME280;41326;45.302;-122.946;2023-07-20T10:53:55;101327.13;;;21.10;57.24
55460;BME280;41326;45.302;-122.946;2023-07-20T10:56:26;101335.74;;;21.09;57.25
55460;BME280;41326;45.302;-122.946;2023-07-20T10:58:57;101336.27;;;21.11;57.18
55460;BME280;41326;45.302;-122.946;2023-07-20T11:01:28;101336.39;;;21.09;57.18
55460;BME280;41326;45.302;-122.946;2023-07-20T11:03:57;101338.08;;;21.09;57.15
55460;BME280;41326;45.302;-122.946;2023-07-20T11:06:31;101342.88;;;21.08;57.07
55460;BME280;41326;45.302;-122.946;2023-07-20T11:09:03;101345.57;;;21.02;57.32
55460;BME280;41326;45.302;-122.946;2023-07-20T11:11:28;101347.71;;;21.04;57.25
55460;BME280;41326;45.302;-122.946;2023-07-20T11:14:02;101349.35;;;21.00;57.34
55460;BME280;41326;45.302;-122.946;2023-07-20T11:16:36;101351.13;;;21.01;57.25
55460;BME280;41326;45.302;-122.946;2023-07-20T11:19:00;101355.72;;;20.98;57.32
55460;BME280;41326;45.302;-122.946;2023-07-20T11:22:40;101360.44;;;20.99;57.18
55460;BME280;41326;45.302;-122.946;2023-07-20T11:25:10;101358.94;;;20.98;57.13
55460;BME280;41326;45.302;-122.946;2023-07-20T11:27:45;101355.07;;;20.97;57.16
55460;BME280;41326;45.302;-122.946;2023-07-20T11:30:16;101359.14;;;20.94;57.22
55460;BME280;41326;45.302;-122.946;2023-07-20T11:32:45;101363.27;;;20.87;57.43
55460;BME280;41326;45.302;-122.946;2023-07-20T11:35:12;101363.06;;;20.87;57.45
55460;BME280;41326;45.302;-122.946;2023-07-20T11:37:42;101364.86;;;20.83;57.55
55460;BME280;41326;45.302;-122.946;2023-07-20T11:40:13;101369.28;;;20.86;57.41
55460;BME280;41326;45.302;-122.946;2023-07-20T11:42:43;101370.65;;;20.84;57.45
55460;BME280;41326;45.302;-122.946;2023-07-20T11:45:13;101368.99;;;20.80;57.58
55460;BME280;41326;45.302;-122.946;2023-07-20T11:47:46;101369.15;;;20.81;57.51
55460;BME280;41326;45.302;-122.946;2023-07-20T11:50:15;101369.79;;;20.77;57.64
55460;BME280;41326;45.302;-122.946;2023-07-20T11:52:45;101372.36;;;20.73;57.86
55460;BME280;41326;45.302;-122.946;2023-07-20T11:55:16;101376.08;;;20.76;57.77
55460;BME280;41326;45.302;-122.946;2023-07-20T12:00:16;101376.59;;;20.81;57.56
55460;BME280;41326;45.302;-122.946;2023-07-20T12:02:46;101376.38;;;20.81;57.49
55460;BME280;41326;45.302;-122.946;2023-07-20T12:05:17;101375.08;;;20.78;57.58
55460;BME280;41326;45.302;-122.946;2023-07-20T12:07:47;101375.65;;;20.76;57.60
55460;BME280;41326;45.302;-122.946;2023-07-20T12:10:23;101375.98;;;20.73;57.64
55460;BME280;41326;45.302;-122.946;2023-07-20T12:12:49;101378.57;;;20.72;57.70
55460;BME280;41326;45.302;-122.946;2023-07-20T12:15:21;101383.08;;;20.73;57.65
55460;BME280;41326;45.302;-122.946;2023-07-20T12:17:50;101384.42;;;20.73;57.66
55460;BME280;41326;45.302;-122.946;2023-07-20T12:22:49;101396.78;;;20.69;57.78
55460;BME280;41326;45.302;-122.946;2023-07-20T12:25:20;101400.10;;;20.69;57.79
55460;BME280;41326;45.302;-122.946;2023-07-20T12:27:51;101401.10;;;20.70;57.73
55460;BME280;41326;45.302;-122.946;2023-07-20T12:30:20;101404.13;;;20.73;57.65
55460;BME280;41326;45.302;-122.946;2023-07-20T12:32:51;101408.53;;;20.71;57.72
55460;BME280;41326;45.302;-122.946;2023-07-20T12:35:22;101409.93;;;20.70;57.69
55460;BME280;41326;45.302;-122.946;2023-07-20T12:37:52;101414.00;;;20.70;57.69
55460;BME280;41326;45.302;-122.946;2023-07-20T12:40:23;101417.65;;;20.69;57.75
55460;BME280;41326;45.302;-122.946;2023-07-20T12:42:53;101421.10;;;20.70;57.66
55460;BME280;41326;45.302;-122.946;2023-07-20T12:45:24;101428.42;;;20.66;57.74
55460;BME280;41326;45.302;-122.946;2023-07-20T12:47:53;101432.16;;;20.65;57.80
55460;BME280;41326;45.302;-122.946;2023-07-20T12:50:24;101435.51;;;20.64;57.72
55460;BME280;41326;45.302;-122.946;2023-07-20T12:52:54;101434.48;;;20.63;57.76